GLD1744 SSST-SSPL
Flight info
| Callsign | GLD1744 |
|---|---|
| Flight time | 1h 6m |
| Altitude | 3500 |
| Route | DCT 2856S05433W 2839S05407W 2825S05352W |
| Aircraft | C172/L-SDFGIRY/S |
Departure
| Time | 2026-04-12 13:39 |
|---|---|
| Airport | Santiago Airport (SSST) |
Arrival
| Time | 2026-04-12 14:45 |
|---|---|
| Airport | Palmeira das Missões Airport (SSPL) |
| Time | Latitude | Longitude | Altitude | Speed | Heading |
|---|---|---|---|---|---|
| 2026-04-12 13:04 | -29.21497 | -54.84289 | 1447 ft | 0 kts | 175° |
| 2026-04-12 13:22 | -29.21493 | -54.84290 | 1451 ft | 1 kts | 173° |
| 2026-04-12 13:22 | -29.21485 | -54.84294 | 1452 ft | 1 kts | 139° |
| 2026-04-12 13:22 | -29.21480 | -54.84302 | 1450 ft | 1 kts | 115° |
| 2026-04-12 13:23 | -29.21480 | -54.84309 | 1452 ft | 1 kts | 66° |
| 2026-04-12 13:27 | -29.21480 | -54.84310 | 1452 ft | 0 kts | 62° |
| 2026-04-12 13:28 | -29.21474 | -54.84303 | 1453 ft | 1 kts | 44° |
| 2026-04-12 13:28 | -29.21469 | -54.84302 | 1454 ft | 1 kts | 336° |
| 2026-04-12 13:28 | -29.21478 | -54.84296 | 1453 ft | 1 kts | 328° |
| 2026-04-12 13:29 | -29.21486 | -54.84290 | 1453 ft | 1 kts | 331° |
| 2026-04-12 13:29 | -29.21489 | -54.84289 | 1452 ft | 1 kts | 335° |
| 2026-04-12 13:29 | -29.21495 | -54.84286 | 1452 ft | 0 kts | 348° |
| 2026-04-12 13:33 | -29.21490 | -54.84287 | 1452 ft | 5 kts | 347° |
| 2026-04-12 13:33 | -29.21439 | -54.84277 | 1452 ft | 7 kts | 64° |
| 2026-04-12 13:34 | -29.21431 | -54.84257 | 1452 ft | 0 kts | 72° |
| 2026-04-12 13:35 | -29.21425 | -54.84228 | 1454 ft | 4 kts | 84° |
| 2026-04-12 13:35 | -29.21466 | -54.84190 | 1455 ft | 13 kts | 162° |
| 2026-04-12 13:35 | -29.21507 | -54.84175 | 1454 ft | 13 kts | 160° |
| 2026-04-12 13:35 | -29.21552 | -54.84157 | 1454 ft | 12 kts | 160° |
| 2026-04-12 13:36 | -29.21637 | -54.84124 | 1453 ft | 15 kts | 162° |
| 2026-04-12 13:36 | -29.21747 | -54.84083 | 1454 ft | 15 kts | 162° |
| 2026-04-12 13:36 | -29.21817 | -54.84057 | 1453 ft | 16 kts | 162° |
| 2026-04-12 13:36 | -29.21965 | -54.84001 | 1451 ft | 15 kts | 162° |
| 2026-04-12 13:37 | -29.22029 | -54.83961 | 1451 ft | 10 kts | 221° |
| 2026-04-12 13:37 | -29.22009 | -54.83985 | 1451 ft | 0 kts | 339° |
| 2026-04-12 13:37 | -29.21988 | -54.83993 | 1452 ft | 16 kts | 340° |
| 2026-04-12 13:38 | -29.21739 | -54.84086 | 1454 ft | 56 kts | 343° |
| 2026-04-12 13:38 | -29.21296 | -54.84285 | 1509 ft | 75 kts | 339° |
| 2026-04-12 13:38 | -29.20797 | -54.84505 | 1670 ft | 76 kts | 341° |
| 2026-04-12 13:38 | -29.20312 | -54.84759 | 1834 ft | 79 kts | 338° |
| 2026-04-12 13:39 | -29.19786 | -54.84860 | 1970 ft | 79 kts | 13° |
| 2026-04-12 13:39 | -29.19367 | -54.84433 | 2174 ft | 85 kts | 49° |
| 2026-04-12 13:39 | -29.19072 | -54.83802 | 2398 ft | 90 kts | 53° |
| 2026-04-12 13:39 | -29.18778 | -54.83168 | 2573 ft | 94 kts | 48° |
| 2026-04-12 13:40 | -29.18409 | -54.82532 | 2742 ft | 94 kts | 43° |
| 2026-04-12 13:40 | -29.18028 | -54.81930 | 2954 ft | 93 kts | 43° |
| 2026-04-12 13:40 | -29.17671 | -54.81320 | 3155 ft | 94 kts | 43° |
| 2026-04-12 13:40 | -29.17310 | -54.80693 | 3350 ft | 95 kts | 43° |
| 2026-04-12 13:41 | -29.16951 | -54.80069 | 3536 ft | 96 kts | 43° |
| 2026-04-12 13:41 | -29.16532 | -54.79366 | 3531 ft | 114 kts | 43° |
| 2026-04-12 13:41 | -29.16082 | -54.78616 | 3530 ft | 114 kts | 43° |
| 2026-04-12 13:41 | -29.15618 | -54.77873 | 3522 ft | 115 kts | 43° |
| 2026-04-12 13:42 | -29.15139 | -54.77122 | 3528 ft | 117 kts | 43° |
| 2026-04-12 13:42 | -29.14654 | -54.76363 | 3523 ft | 119 kts | 43° |
| 2026-04-12 13:42 | -29.14162 | -54.75596 | 3526 ft | 119 kts | 42° |
| 2026-04-12 13:42 | -29.13682 | -54.74840 | 3528 ft | 116 kts | 42° |
| 2026-04-12 13:43 | -29.13210 | -54.74105 | 3523 ft | 114 kts | 42° |
| 2026-04-12 13:43 | -29.12713 | -54.73422 | 3518 ft | 110 kts | 38° |
| 2026-04-12 13:43 | -29.12191 | -54.72793 | 3514 ft | 109 kts | 35° |
| 2026-04-12 13:43 | -29.11666 | -54.72163 | 3509 ft | 109 kts | 35° |
| 2026-04-12 13:44 | -29.11146 | -54.71522 | 3509 ft | 111 kts | 36° |
| 2026-04-12 13:44 | -29.10627 | -54.70881 | 3512 ft | 110 kts | 35° |
| 2026-04-12 13:44 | -29.10100 | -54.70238 | 3515 ft | 111 kts | 36° |
| 2026-04-12 13:44 | -29.09570 | -54.69601 | 3510 ft | 110 kts | 36° |
| 2026-04-12 13:45 | -29.09046 | -54.68984 | 3512 ft | 110 kts | 35° |
| 2026-04-12 13:45 | -29.08515 | -54.68345 | 3512 ft | 109 kts | 35° |
| 2026-04-12 13:45 | -29.07997 | -54.67712 | 3514 ft | 110 kts | 35° |
| 2026-04-12 13:45 | -29.07481 | -54.67085 | 3518 ft | 109 kts | 36° |
| 2026-04-12 13:46 | -29.06949 | -54.66456 | 3518 ft | 110 kts | 35° |
| 2026-04-12 13:46 | -29.06418 | -54.65819 | 3511 ft | 110 kts | 34° |
| 2026-04-12 13:46 | -29.05886 | -54.65186 | 3507 ft | 112 kts | 35° |
| 2026-04-12 13:46 | -29.05347 | -54.64546 | 3513 ft | 112 kts | 35° |
| 2026-04-12 13:47 | -29.04803 | -54.63903 | 3516 ft | 113 kts | 35° |
| 2026-04-12 13:47 | -29.04250 | -54.63260 | 3515 ft | 113 kts | 35° |
| 2026-04-12 13:47 | -29.03698 | -54.62621 | 3519 ft | 113 kts | 35° |
| 2026-04-12 13:47 | -29.03150 | -54.61982 | 3522 ft | 113 kts | 35° |
| 2026-04-12 13:48 | -29.02782 | -54.61562 | 3523 ft | 112 kts | 33° |
| 2026-04-12 13:48 | -29.02198 | -54.60977 | 3527 ft | 111 kts | 30° |
| 2026-04-12 13:48 | -29.01612 | -54.60393 | 3527 ft | 113 kts | 31° |
| 2026-04-12 13:48 | -29.01013 | -54.59817 | 3529 ft | 112 kts | 27° |
| 2026-04-12 13:49 | -29.00375 | -54.59313 | 3526 ft | 111 kts | 24° |
| 2026-04-12 13:49 | -28.99721 | -54.58834 | 3526 ft | 113 kts | 23° |
| 2026-04-12 13:49 | -28.99064 | -54.58349 | 3519 ft | 111 kts | 23° |
| 2026-04-12 13:49 | -28.98425 | -54.57873 | 3526 ft | 109 kts | 23° |
| 2026-04-12 13:50 | -28.97791 | -54.57400 | 3521 ft | 109 kts | 23° |
| 2026-04-12 13:50 | -28.97153 | -54.56927 | 3518 ft | 108 kts | 23° |
| 2026-04-12 13:50 | -28.96525 | -54.56463 | 3515 ft | 107 kts | 23° |
| 2026-04-12 13:50 | -28.95899 | -54.55998 | 3520 ft | 108 kts | 23° |
| 2026-04-12 13:51 | -28.95276 | -54.55531 | 3520 ft | 108 kts | 24° |
| 2026-04-12 13:51 | -28.94742 | -54.54883 | 3514 ft | 116 kts | 43° |
| 2026-04-12 13:51 | -28.94273 | -54.54141 | 3516 ft | 115 kts | 42° |
| 2026-04-12 13:51 | -28.93799 | -54.53410 | 3521 ft | 115 kts | 42° |
| 2026-04-12 13:52 | -28.93293 | -54.52703 | 3524 ft | 116 kts | 43° |
| 2026-04-12 13:52 | -28.92792 | -54.51961 | 3528 ft | 119 kts | 41° |
| 2026-04-12 13:52 | -28.92281 | -54.51219 | 3527 ft | 119 kts | 42° |
| 2026-04-12 13:52 | -28.91770 | -54.50475 | 3529 ft | 119 kts | 41° |
| 2026-04-12 13:53 | -28.91274 | -54.49731 | 3527 ft | 118 kts | 42° |
| 2026-04-12 13:53 | -28.90776 | -54.48992 | 3522 ft | 117 kts | 42° |
| 2026-04-12 13:53 | -28.90276 | -54.48267 | 3526 ft | 116 kts | 41° |
| 2026-04-12 13:53 | -28.89774 | -54.47537 | 3532 ft | 118 kts | 41° |
| 2026-04-12 13:54 | -28.89268 | -54.46804 | 3529 ft | 117 kts | 41° |
| 2026-04-12 13:54 | -28.88760 | -54.46075 | 3533 ft | 118 kts | 41° |
| 2026-04-12 13:54 | -28.88252 | -54.45336 | 3530 ft | 118 kts | 41° |
| 2026-04-12 13:54 | -28.87738 | -54.44608 | 3532 ft | 118 kts | 40° |
| 2026-04-12 13:55 | -28.87205 | -54.43897 | 3531 ft | 118 kts | 39° |
| 2026-04-12 13:55 | -28.86668 | -54.43182 | 3534 ft | 119 kts | 38° |
| 2026-04-12 13:55 | -28.86113 | -54.42483 | 3535 ft | 119 kts | 37° |
| 2026-04-12 13:55 | -28.85558 | -54.41792 | 3529 ft | 117 kts | 37° |
| 2026-04-12 13:56 | -28.85014 | -54.41110 | 3528 ft | 116 kts | 37° |
| 2026-04-12 13:56 | -28.84471 | -54.40430 | 3527 ft | 116 kts | 37° |
| 2026-04-12 13:56 | -28.83927 | -54.39757 | 3534 ft | 118 kts | 37° |
| 2026-04-12 13:56 | -28.83359 | -54.39060 | 3540 ft | 119 kts | 37° |
| 2026-04-12 13:57 | -28.82790 | -54.38363 | 3537 ft | 120 kts | 38° |
| 2026-04-12 13:57 | -28.82225 | -54.37684 | 3536 ft | 119 kts | 37° |
| 2026-04-12 13:57 | -28.81657 | -54.37000 | 3541 ft | 119 kts | 37° |
| 2026-04-12 13:57 | -28.81086 | -54.36316 | 3530 ft | 118 kts | 37° |
| 2026-04-12 13:58 | -28.80518 | -54.35642 | 3534 ft | 118 kts | 37° |
| 2026-04-12 13:58 | -28.79948 | -54.34966 | 3539 ft | 119 kts | 37° |
| 2026-04-12 13:58 | -28.79368 | -54.34287 | 3531 ft | 119 kts | 37° |
| 2026-04-12 13:58 | -28.78797 | -54.33614 | 3533 ft | 117 kts | 37° |
| 2026-04-12 13:59 | -28.78235 | -54.32948 | 3528 ft | 116 kts | 37° |
| 2026-04-12 13:59 | -28.77673 | -54.32288 | 3534 ft | 116 kts | 37° |
| 2026-04-12 13:59 | -28.77104 | -54.31624 | 3527 ft | 117 kts | 36° |
| 2026-04-12 13:59 | -28.76533 | -54.30956 | 3530 ft | 118 kts | 37° |
| 2026-04-12 14:00 | -28.75960 | -54.30289 | 3527 ft | 116 kts | 36° |
| 2026-04-12 14:00 | -28.75398 | -54.29628 | 3527 ft | 116 kts | 36° |
| 2026-04-12 14:00 | -28.74856 | -54.28943 | 3525 ft | 119 kts | 44° |
| 2026-04-12 14:00 | -28.74402 | -54.28151 | 3523 ft | 120 kts | 49° |
| 2026-04-12 14:01 | -28.73996 | -54.27316 | 3525 ft | 121 kts | 52° |
| 2026-04-12 14:01 | -28.73603 | -54.26471 | 3527 ft | 120 kts | 52° |
| 2026-04-12 14:01 | -28.73213 | -54.25638 | 3531 ft | 119 kts | 52° |
| 2026-04-12 14:01 | -28.72819 | -54.24805 | 3535 ft | 120 kts | 52° |
| 2026-04-12 14:02 | -28.72422 | -54.23966 | 3536 ft | 120 kts | 52° |
| 2026-04-12 14:02 | -28.72025 | -54.23133 | 3536 ft | 122 kts | 52° |
| 2026-04-12 14:02 | -28.71608 | -54.22276 | 3532 ft | 123 kts | 51° |
| 2026-04-12 14:02 | -28.71168 | -54.21463 | 3539 ft | 121 kts | 47° |
| 2026-04-12 14:03 | -28.70701 | -54.20666 | 3538 ft | 122 kts | 47° |
| 2026-04-12 14:03 | -28.70222 | -54.19864 | 3542 ft | 122 kts | 46° |
| 2026-04-12 14:03 | -28.69758 | -54.19069 | 3544 ft | 118 kts | 47° |
| 2026-04-12 14:03 | -28.69300 | -54.18290 | 3546 ft | 119 kts | 46° |
| 2026-04-12 14:04 | -28.68843 | -54.17499 | 3543 ft | 120 kts | 46° |
| 2026-04-12 14:04 | -28.68383 | -54.16703 | 3551 ft | 120 kts | 47° |
| 2026-04-12 14:04 | -28.67910 | -54.15917 | 3543 ft | 121 kts | 46° |
| 2026-04-12 14:04 | -28.67427 | -54.15127 | 3539 ft | 121 kts | 46° |
| 2026-04-12 14:05 | -28.66916 | -54.14381 | 3544 ft | 119 kts | 42° |
| 2026-04-12 14:05 | -28.66382 | -54.13661 | 3545 ft | 119 kts | 41° |
| 2026-04-12 14:05 | -28.65344 | -54.12226 | 3542 ft | 117 kts | 42° |
| 2026-04-12 14:06 | -28.64826 | -54.11532 | 3539 ft | 113 kts | 40° |
| 2026-04-12 14:06 | -28.64314 | -54.10835 | 3527 ft | 116 kts | 41° |
| 2026-04-12 14:06 | -28.63805 | -54.10128 | 3532 ft | 116 kts | 41° |
| 2026-04-12 14:06 | -28.63293 | -54.09417 | 3538 ft | 116 kts | 40° |
| 2026-04-12 14:07 | -28.62787 | -54.08694 | 3544 ft | 117 kts | 41° |
| 2026-04-12 14:07 | -28.62279 | -54.07985 | 3545 ft | 114 kts | 41° |
| 2026-04-12 14:07 | -28.61774 | -54.07296 | 3546 ft | 113 kts | 41° |
| 2026-04-12 14:07 | -28.61272 | -54.06608 | 3543 ft | 113 kts | 41° |
| 2026-04-12 14:08 | -28.60761 | -54.05924 | 3543 ft | 114 kts | 40° |
| 2026-04-12 14:08 | -28.60254 | -54.05232 | 3543 ft | 117 kts | 41° |
| 2026-04-12 14:08 | -28.59738 | -54.04519 | 3542 ft | 116 kts | 40° |
| 2026-04-12 14:08 | -28.59193 | -54.03854 | 3545 ft | 115 kts | 36° |
| 2026-04-12 14:09 | -28.58636 | -54.03202 | 3547 ft | 114 kts | 36° |
| 2026-04-12 14:09 | -28.58080 | -54.02564 | 3538 ft | 113 kts | 36° |
| 2026-04-12 14:09 | -28.57527 | -54.01939 | 3543 ft | 112 kts | 35° |
| 2026-04-12 14:09 | -28.56986 | -54.01302 | 3550 ft | 112 kts | 36° |
| 2026-04-12 14:10 | -28.56440 | -54.00664 | 3555 ft | 113 kts | 36° |
| 2026-04-12 14:10 | -28.55876 | -54.00022 | 3548 ft | 115 kts | 35° |
| 2026-04-12 14:10 | -28.55314 | -53.99375 | 3549 ft | 115 kts | 36° |
| 2026-04-12 14:10 | -28.54746 | -53.98729 | 3546 ft | 115 kts | 36° |
| 2026-04-12 14:11 | -28.54182 | -53.98092 | 3543 ft | 114 kts | 35° |
| 2026-04-12 14:11 | -28.53632 | -53.97453 | 3544 ft | 113 kts | 35° |
| 2026-04-12 14:11 | -28.53077 | -53.96804 | 3545 ft | 115 kts | 35° |
| 2026-04-12 14:11 | -28.52510 | -53.96150 | 3549 ft | 116 kts | 33° |
| 2026-04-12 14:12 | -28.51903 | -53.95556 | 3556 ft | 114 kts | 28° |
| 2026-04-12 14:12 | -28.51257 | -53.95030 | 3550 ft | 114 kts | 26° |
| 2026-04-12 14:12 | -28.50609 | -53.94514 | 3557 ft | 113 kts | 26° |
| 2026-04-12 14:12 | -28.49969 | -53.94002 | 3551 ft | 112 kts | 26° |
| 2026-04-12 14:13 | -28.49333 | -53.93497 | 3552 ft | 111 kts | 26° |
| 2026-04-12 14:13 | -28.48702 | -53.93002 | 3550 ft | 112 kts | 26° |
| 2026-04-12 14:13 | -28.48065 | -53.92494 | 3549 ft | 112 kts | 26° |
| 2026-04-12 14:13 | -28.47428 | -53.91973 | 3549 ft | 114 kts | 27° |
| 2026-04-12 14:14 | -28.46796 | -53.91421 | 3551 ft | 114 kts | 27° |
| 2026-04-12 14:14 | -28.46181 | -53.90853 | 3548 ft | 113 kts | 28° |
| 2026-04-12 14:14 | -28.45590 | -53.90274 | 3541 ft | 112 kts | 30° |
| 2026-04-12 14:14 | -28.45010 | -53.89700 | 3544 ft | 109 kts | 29° |
| 2026-04-12 14:15 | -28.44425 | -53.89157 | 3545 ft | 109 kts | 28° |
| 2026-04-12 14:15 | -28.43833 | -53.88617 | 3540 ft | 109 kts | 28° |
| 2026-04-12 14:15 | -28.43235 | -53.88081 | 3543 ft | 110 kts | 28° |
| 2026-04-12 14:15 | -28.42627 | -53.87531 | 3546 ft | 113 kts | 28° |
| 2026-04-12 14:16 | -28.42012 | -53.86967 | 3545 ft | 114 kts | 28° |
| 2026-04-12 14:16 | -28.41397 | -53.86402 | 3550 ft | 114 kts | 29° |
| 2026-04-12 14:16 | -28.40775 | -53.85845 | 3555 ft | 114 kts | 28° |
| 2026-04-12 14:16 | -28.40153 | -53.85301 | 3553 ft | 112 kts | 28° |
| 2026-04-12 14:17 | -28.39541 | -53.84766 | 3553 ft | 112 kts | 28° |
| 2026-04-12 14:17 | -28.38913 | -53.84222 | 3543 ft | 112 kts | 28° |
| 2026-04-12 14:17 | -28.38318 | -53.83695 | 3540 ft | 108 kts | 28° |
| 2026-04-12 14:17 | -28.37722 | -53.83160 | 3533 ft | 107 kts | 28° |
| 2026-04-12 14:18 | -28.37141 | -53.82633 | 3546 ft | 111 kts | 30° |
| 2026-04-12 14:18 | -28.36566 | -53.82027 | 3541 ft | 113 kts | 34° |
| 2026-04-12 14:18 | -28.35987 | -53.81399 | 3549 ft | 114 kts | 33° |
| 2026-04-12 14:18 | -28.35417 | -53.80778 | 3551 ft | 115 kts | 34° |
| 2026-04-12 14:19 | -28.34838 | -53.80152 | 3549 ft | 115 kts | 33° |
| 2026-04-12 14:19 | -28.34265 | -53.79529 | 3551 ft | 113 kts | 34° |
| 2026-04-12 14:19 | -28.33702 | -53.78913 | 3553 ft | 113 kts | 34° |
| 2026-04-12 14:19 | -28.33139 | -53.78300 | 3556 ft | 111 kts | 34° |
| 2026-04-12 14:20 | -28.32581 | -53.77693 | 3556 ft | 112 kts | 33° |
| 2026-04-12 14:20 | -28.32016 | -53.77084 | 3549 ft | 112 kts | 33° |
| 2026-04-12 14:20 | -28.31450 | -53.76475 | 3556 ft | 113 kts | 33° |
| 2026-04-12 14:20 | -28.30880 | -53.75857 | 3547 ft | 114 kts | 33° |
| 2026-04-12 14:21 | -28.30310 | -53.75233 | 3548 ft | 114 kts | 33° |
| 2026-04-12 14:21 | -28.29741 | -53.74612 | 3544 ft | 114 kts | 33° |
| 2026-04-12 14:21 | -28.29168 | -53.73997 | 3549 ft | 112 kts | 33° |
| 2026-04-12 14:21 | -28.28619 | -53.73400 | 3549 ft | 107 kts | 35° |
| 2026-04-12 14:22 | -28.28121 | -53.72795 | 3555 ft | 105 kts | 36° |
| 2026-04-12 14:22 | -28.27613 | -53.72177 | 3553 ft | 108 kts | 36° |
| 2026-04-12 14:22 | -28.27095 | -53.71545 | 3551 ft | 110 kts | 37° |
| 2026-04-12 14:22 | -28.26558 | -53.70932 | 3554 ft | 109 kts | 35° |
| 2026-04-12 14:23 | -28.26012 | -53.70318 | 3557 ft | 112 kts | 35° |
| 2026-04-12 14:23 | -28.25644 | -53.69904 | 3562 ft | 112 kts | 35° |
| 2026-04-12 14:23 | -28.24918 | -53.69095 | 3555 ft | 109 kts | 34° |
| 2026-04-12 14:23 | -28.24394 | -53.68480 | 3554 ft | 108 kts | 34° |
| 2026-04-12 14:24 | -28.23871 | -53.67862 | 3560 ft | 110 kts | 35° |
| 2026-04-12 14:24 | -28.23329 | -53.67246 | 3558 ft | 110 kts | 37° |
| 2026-04-12 14:24 | -28.22781 | -53.66636 | 3562 ft | 111 kts | 34° |
| 2026-04-12 14:24 | -28.22234 | -53.66022 | 3560 ft | 110 kts | 36° |
| 2026-04-12 14:25 | -28.21683 | -53.65427 | 3556 ft | 109 kts | 36° |
| 2026-04-12 14:25 | -28.21126 | -53.64830 | 3563 ft | 111 kts | 35° |
| 2026-04-12 14:25 | -28.20571 | -53.64223 | 3556 ft | 110 kts | 36° |
| 2026-04-12 14:25 | -28.20026 | -53.63613 | 3564 ft | 110 kts | 33° |
| 2026-04-12 14:26 | -28.19465 | -53.63010 | 3560 ft | 111 kts | 34° |
| 2026-04-12 14:26 | -28.18922 | -53.62419 | 3564 ft | 106 kts | 35° |
| 2026-04-12 14:26 | -28.18402 | -53.61854 | 3561 ft | 105 kts | 34° |
| 2026-04-12 14:26 | -28.17864 | -53.61270 | 3557 ft | 109 kts | 34° |
| 2026-04-12 14:27 | -28.17316 | -53.60690 | 3561 ft | 109 kts | 34° |
| 2026-04-12 14:27 | -28.16761 | -53.60108 | 3560 ft | 108 kts | 34° |
| 2026-04-12 14:27 | -28.16212 | -53.59521 | 3560 ft | 109 kts | 34° |
| 2026-04-12 14:27 | -28.15653 | -53.58922 | 3567 ft | 111 kts | 34° |
| 2026-04-12 14:28 | -28.15095 | -53.58327 | 3566 ft | 109 kts | 34° |
| 2026-04-12 14:28 | -28.14544 | -53.57753 | 3561 ft | 107 kts | 34° |
| 2026-04-12 14:28 | -28.14003 | -53.57179 | 3554 ft | 106 kts | 34° |
| 2026-04-12 14:28 | -28.13471 | -53.56607 | 3557 ft | 105 kts | 34° |
| 2026-04-12 14:29 | -28.12942 | -53.56023 | 3562 ft | 107 kts | 38° |
| 2026-04-12 14:29 | -28.12445 | -53.55373 | 3568 ft | 111 kts | 39° |
| 2026-04-12 14:29 | -28.11943 | -53.54696 | 3570 ft | 113 kts | 40° |
| 2026-04-12 14:29 | -28.11431 | -53.54021 | 3571 ft | 113 kts | 40° |
| 2026-04-12 14:30 | -28.10916 | -53.53344 | 3567 ft | 113 kts | 40° |
| 2026-04-12 14:30 | -28.10415 | -53.52675 | 3560 ft | 109 kts | 40° |
| 2026-04-12 14:30 | -28.09937 | -53.52037 | 3567 ft | 106 kts | 40° |
| 2026-04-12 14:30 | -28.09454 | -53.51415 | 3566 ft | 104 kts | 39° |
| 2026-04-12 14:31 | -28.08977 | -53.50799 | 3562 ft | 104 kts | 39° |
| 2026-04-12 14:31 | -28.08501 | -53.50191 | 3560 ft | 101 kts | 39° |
| 2026-04-12 14:31 | -28.08033 | -53.49591 | 3571 ft | 104 kts | 39° |
| 2026-04-12 14:31 | -28.07555 | -53.48967 | 3565 ft | 105 kts | 39° |
| 2026-04-12 14:32 | -28.07084 | -53.48340 | 3567 ft | 105 kts | 39° |
| 2026-04-12 14:32 | -28.06602 | -53.47702 | 3578 ft | 108 kts | 39° |
| 2026-04-12 14:32 | -28.06102 | -53.47052 | 3585 ft | 111 kts | 39° |
| 2026-04-12 14:32 | -28.05592 | -53.46395 | 3576 ft | 111 kts | 39° |
| 2026-04-12 14:33 | -28.05078 | -53.45747 | 3578 ft | 111 kts | 40° |
| 2026-04-12 14:33 | -28.04555 | -53.45098 | 3583 ft | 112 kts | 39° |
| 2026-04-12 14:33 | -28.04038 | -53.44448 | 3588 ft | 111 kts | 39° |
| 2026-04-12 14:33 | -28.03513 | -53.43797 | 3564 ft | 112 kts | 39° |
| 2026-04-12 14:34 | -28.02999 | -53.43161 | 3491 ft | 108 kts | 39° |
| 2026-04-12 14:34 | -28.02508 | -53.42542 | 3424 ft | 107 kts | 39° |
| 2026-04-12 14:34 | -28.02010 | -53.41910 | 3348 ft | 108 kts | 39° |
| 2026-04-12 14:34 | -28.01504 | -53.41281 | 3272 ft | 108 kts | 39° |
| 2026-04-12 14:35 | -28.01005 | -53.40652 | 3188 ft | 106 kts | 39° |
| 2026-04-12 14:35 | -28.00520 | -53.40040 | 3108 ft | 104 kts | 39° |
| 2026-04-12 14:35 | -28.00043 | -53.39464 | 3086 ft | 97 kts | 39° |
| 2026-04-12 14:35 | -27.99584 | -53.38919 | 3073 ft | 95 kts | 39° |
| 2026-04-12 14:36 | -27.99138 | -53.38387 | 3083 ft | 93 kts | 39° |
| 2026-04-12 14:36 | -27.98689 | -53.37858 | 3082 ft | 93 kts | 38° |
| 2026-04-12 14:36 | -27.98234 | -53.37322 | 3085 ft | 95 kts | 38° |
| 2026-04-12 14:36 | -27.97718 | -53.36858 | 3086 ft | 95 kts | 26° |
| 2026-04-12 14:37 | -27.97140 | -53.36530 | 3087 ft | 93 kts | 19° |
| 2026-04-12 14:37 | -27.96552 | -53.36212 | 3089 ft | 93 kts | 20° |
| 2026-04-12 14:37 | -27.95963 | -53.35893 | 3091 ft | 95 kts | 19° |
| 2026-04-12 14:37 | -27.95372 | -53.35574 | 3085 ft | 92 kts | 19° |
| 2026-04-12 14:38 | -27.94811 | -53.35254 | 3089 ft | 89 kts | 19° |
| 2026-04-12 14:38 | -27.94265 | -53.34942 | 3081 ft | 88 kts | 19° |
| 2026-04-12 14:38 | -27.93708 | -53.34637 | 3082 ft | 91 kts | 20° |
| 2026-04-12 14:38 | -27.93128 | -53.34343 | 3081 ft | 90 kts | 19° |
| 2026-04-12 14:39 | -27.92552 | -53.34070 | 3087 ft | 91 kts | 19° |
| 2026-04-12 14:39 | -27.92163 | -53.33886 | 3084 ft | 91 kts | 19° |
| 2026-04-12 14:39 | -27.91387 | -53.33520 | 3082 ft | 88 kts | 22° |
| 2026-04-12 14:39 | -27.91069 | -53.33220 | 3020 ft | 94 kts | 42° |
| 2026-04-12 14:40 | -27.90690 | -53.32640 | 2994 ft | 89 kts | 46° |
| 2026-04-12 14:40 | -27.90325 | -53.32081 | 2963 ft | 90 kts | 42° |
| 2026-04-12 14:40 | -27.89954 | -53.31502 | 2952 ft | 90 kts | 46° |
| 2026-04-12 14:40 | -27.89606 | -53.30914 | 2990 ft | 87 kts | 45° |
| 2026-04-12 14:41 | -27.89150 | -53.30537 | 2945 ft | 85 kts | 5° |
| 2026-04-12 14:41 | -27.88629 | -53.30734 | 3014 ft | 85 kts | 325° |
| 2026-04-12 14:41 | -27.88284 | -53.31313 | 3063 ft | 89 kts | 311° |
| 2026-04-12 14:41 | -27.88106 | -53.32000 | 2992 ft | 107 kts | 273° |
| 2026-04-12 14:42 | -27.88405 | -53.32778 | 3050 ft | 112 kts | 240° |
| 2026-04-12 14:42 | -27.89033 | -53.33352 | 3088 ft | 119 kts | 220° |
| 2026-04-12 14:42 | -27.89709 | -53.33905 | 3104 ft | 121 kts | 225° |
| 2026-04-12 14:42 | -27.90341 | -53.34499 | 3169 ft | 119 kts | 226° |
| 2026-04-12 14:43 | -27.91029 | -53.35083 | 3070 ft | 125 kts | 223° |
| 2026-04-12 14:43 | -27.91817 | -53.35400 | 2958 ft | 125 kts | 169° |
| 2026-04-12 14:43 | -27.92493 | -53.34973 | 2926 ft | 103 kts | 111° |
| 2026-04-12 14:43 | -27.92505 | -53.34292 | 2785 ft | 82 kts | 46° |
| 2026-04-12 14:44 | -27.92025 | -53.34071 | 2649 ft | 80 kts | 4° |
| 2026-04-12 14:44 | -27.91487 | -53.34044 | 2567 ft | 74 kts | 11° |
| 2026-04-12 14:44 | -27.91033 | -53.33845 | 2338 ft | 70 kts | 22° |
| 2026-04-12 14:44 | -27.90639 | -53.33511 | 2213 ft | 72 kts | 42° |
| 2026-04-12 14:45 | -27.90302 | -53.33137 | 2095 ft | 62 kts | 41° |
| 2026-04-12 14:45 | -27.90065 | -53.32872 | 2091 ft | 30 kts | 38° |
| 2026-04-12 14:45 | -27.90002 | -53.32797 | 2093 ft | 4 kts | 184° |
| 2026-04-12 14:45 | -27.90027 | -53.32828 | 2093 ft | 9 kts | 229° |
| 2026-04-12 14:46 | -27.90081 | -53.32890 | 2092 ft | 13 kts | 224° |
| 2026-04-12 14:46 | -27.90158 | -53.32978 | 2092 ft | 18 kts | 224° |
| 2026-04-12 14:46 | -27.90247 | -53.33077 | 2094 ft | 14 kts | 224° |
| 2026-04-12 14:46 | -27.90326 | -53.33165 | 2093 ft | 18 kts | 225° |
| 2026-04-12 14:47 | -27.90386 | -53.33233 | 2094 ft | 8 kts | 224° |
| 2026-04-12 14:47 | -27.90398 | -53.33246 | 2094 ft | 5 kts | 47° |
| 2026-04-12 14:47 | -27.90355 | -53.33194 | 2094 ft | 14 kts | 46° |
| 2026-04-12 14:47 | -27.90289 | -53.33109 | 2094 ft | 12 kts | 75° |
| 2026-04-12 14:48 | -27.90346 | -53.33072 | 2093 ft | 11 kts | 206° |
| 2026-04-12 14:48 | -27.90355 | -53.33067 | 2092 ft | 0 kts | 48° |